Time,TemperatureF,DewpointF,PressureIn,WindDirection,WindDirectionDegrees,WindSpeedMPH,WindSpeedGustMPH,Humidity,HourlyPrecipIn,Conditions,Clouds,dailyrainin,SoftwareType,DateUTC
2013-03-12 00:02:00,32.0,24.0,-100.00,West,280,1.0,1.0,74,-99.99,,,-99.99,,2013-03-12 05:02:00,
2013-03-12 00:12:00,28.0,21.0,-100.00,WNW,295,1.0,1.0,74,-99.99,,,-99.99,,2013-03-12 05:12:00,
2013-03-12 00:22:00,28.0,21.0,-100.00,WNW,295,1.0,1.0,74,-99.99,,,-99.99,,2013-03-12 05:22:00,
2013-03-12 00:32:00,25.0,18.0,-100.00,West,275,1.0,1.0,73,-99.99,,,-99.99,,2013-03-12 05:32:00,
2013-03-12 00:42:00,25.0,18.0,-100.00,West,275,1.0,1.0,73,-99.99,,,-99.99,,2013-03-12 05:42:00,
2013-03-12 00:52:00,27.0,20.0,-100.00,West,280,1.0,1.0,77,-99.99,,,-99.99,,2013-03-12 05:52:00,
2013-03-12 01:02:00,27.0,20.0,-100.00,West,280,1.0,1.0,77,-99.99,,,-99.99,,2013-03-12 06:02:00,
2013-03-12 01:12:00,29.0,21.0,-100.00,WNW,290,1.0,1.0,72,-99.99,,,-99.99,,2013-03-12 06:12:00,
2013-03-12 01:22:00,33.0,25.0,-100.00,West,280,1.0,1.0,72,-99.99,,,-99.99,,2013-03-12 06:22:00,
2013-03-12 01:32:00,27.0,18.0,-100.00,West,275,1.0,1.0,68,-99.99,,,-99.99,,2013-03-12 06:32:00,
2013-03-12 01:42:00,27.0,18.0,-100.00,West,275,1.0,1.0,68,-99.99,,,-99.99,,2013-03-12 06:42:00,
2013-03-12 01:52:00,28.0,20.0,-100.00,West,280,1.0,1.0,72,-99.99,,,-99.99,,2013-03-12 06:52:00,
2013-03-12 02:02:00,28.0,20.0,-100.00,West,280,1.0,1.0,72,-99.99,,,-99.99,,2013-03-12 07:02:00,
2013-03-12 02:12:00,28.0,20.0,-100.00,WNW,285,1.0,1.0,72,-99.99,,,-99.99,,2013-03-12 07:12:00,
2013-03-12 02:22:00,30.0,22.0,-100.00,WNW,290,1.0,1.0,72,-99.99,,,-99.99,,2013-03-12 07:22:00,
2013-03-12 02:32:00,30.0,22.0,-100.00,WNW,290,1.0,1.0,72,-99.99,,,-99.99,,2013-03-12 07:32:00,
2013-03-12 02:42:00,24.0,17.0,-100.00,West,280,1.0,1.0,75,-99.99,,,-99.99,,2013-03-12 07:42:00,
2013-03-12 02:52:00,25.0,19.0,-100.00,West,275,1.0,1.0,75,-99.99,,,-99.99,,2013-03-12 07:52:00,
2013-03-12 03:02:00,25.0,19.0,-100.00,West,275,1.0,1.0,75,-99.99,,,-99.99,,2013-03-12 08:02:00,
2013-03-12 03:13:00,30.0,23.0,-100.00,West,280,1.0,1.0,75,-99.99,,,-99.99,,2013-03-12 08:13:00,
2013-03-12 03:22:00,30.0,22.0,-100.00,West,275,1.0,1.0,74,-99.99,,,-99.99,,2013-03-12 08:22:00,
2013-03-12 03:33:00,30.0,22.0,-100.00,West,275,1.0,1.0,74,-99.99,,,-99.99,,2013-03-12 08:33:00,
2013-03-12 03:42:00,29.0,20.0,-100.00,West,275,1.0,1.0,68,-99.99,,,-99.99,,2013-03-12 08:42:00,
2013-03-12 03:52:00,29.0,18.0,-100.00,WNW,290,1.0,1.0,63,-99.99,,,-99.99,,2013-03-12 08:52:00,
2013-03-12 04:03:00,29.0,18.0,-100.00,WNW,290,1.0,1.0,63,-99.99,,,-99.99,,2013-03-12 09:03:00,
2013-03-12 04:12:00,27.0,16.0,-100.00,WNW,295,1.0,1.0,62,-99.99,,,-99.99,,2013-03-12 09:12:00,
2013-03-12 04:22:00,30.0,19.0,-100.00,WNW,290,1.0,1.0,62,-99.99,,,-99.99,,2013-03-12 09:22:00,
2013-03-12 04:32:00,30.0,19.0,-100.00,WNW,290,1.0,1.0,62,-99.99,,,-99.99,,2013-03-12 09:32:00,
2013-03-12 04:42:00,23.0,13.0,-100.00,WNW,290,1.0,1.0,63,-99.99,,,-99.99,,2013-03-12 09:42:00,
2013-03-12 04:52:00,31.0,20.0,-100.00,WNW,285,1.0,1.0,62,-99.99,,,-99.99,,2013-03-12 09:52:00,
2013-03-12 05:02:00,31.0,20.0,-100.00,WNW,285,1.0,1.0,62,-99.99,,,-99.99,,2013-03-12 10:02:00,
2013-03-12 05:12:00,30.0,19.0,-100.00,WNW,285,1.0,1.0,63,-99.99,,,-99.99,,2013-03-12 10:12:00,
2013-03-12 05:22:00,30.0,19.0,-100.00,WNW,285,1.0,1.0,64,-99.99,,,-99.99,,2013-03-12 10:22:00,
2013-03-12 05:32:00,30.0,19.0,-100.00,WNW,285,1.0,1.0,64,-99.99,,,-99.99,,2013-03-12 10:32:00,
2013-03-12 05:42:00,29.0,19.0,-100.00,WNW,290,1.0,1.0,65,-99.99,,,-99.99,,2013-03-12 10:42:00,
2013-03-12 05:52:00,26.0,17.0,-100.00,WNW,290,1.0,1.0,68,-99.99,,,-99.99,,2013-03-12 10:52:00,
2013-03-12 06:02:00,26.0,17.0,-100.00,WNW,290,1.0,1.0,68,-99.99,,,-99.99,,2013-03-12 11:02:00,
2013-03-12 06:12:00,25.0,16.0,-100.00,WNW,285,1.0,1.0,68,-99.99,,,-99.99,,2013-03-12 11:12:00,
2013-03-12 06:22:00,27.0,19.0,-100.00,WNW,290,1.0,1.0,69,-99.99,,,-99.99,,2013-03-12 11:22:00,
2013-03-12 06:32:00,27.0,19.0,-100.00,WNW,290,1.0,1.0,69,-99.99,,,-99.99,,2013-03-12 11:32:00,
2013-03-12 06:42:00,20.0,11.0,-100.00,West,265,1.0,1.0,66,-99.99,,,-99.99,,2013-03-12 11:42:00,
2013-03-12 06:52:00,28.0,20.0,-100.00,WNW,300,1.0,1.0,71,-99.99,,,-99.99,,2013-03-12 11:52:00,
2013-03-12 07:02:00,28.0,20.0,-100.00,WNW,300,1.0,1.0,71,-99.99,,,-99.99,,2013-03-12 12:02:00,
2013-03-12 07:12:00,23.0,16.0,-100.00,West,280,1.0,1.0,74,-99.99,,,-99.99,,2013-03-12 12:12:00,
2013-03-12 07:22:00,26.0,18.0,-100.00,West,260,1.0,1.0,70,-99.99,,,-99.99,,2013-03-12 12:22:00,
2013-03-12 07:32:00,26.0,18.0,-100.00,West,260,1.0,1.0,70,-99.99,,,-99.99,,2013-03-12 12:32:00,
2013-03-12 07:42:00,25.0,18.0,-100.00,West,280,1.0,1.0,73,-99.99,,,-99.99,,2013-03-12 12:42:00,
2013-03-12 07:52:00,23.0,16.0,-100.00,West,280,1.0,1.0,74,-99.99,,,-99.99,,2013-03-12 12:52:00,
2013-03-12 08:02:00,23.0,16.0,-100.00,West,280,1.0,1.0,74,-99.99,,,-99.99,,2013-03-12 13:02:00,
2013-03-12 08:12:00,28.0,21.0,-100.00,West,280,1.0,1.0,74,-99.99,,,-99.99,,2013-03-12 13:12:00,
2013-03-12 08:22:00,25.0,18.0,-100.00,WNW,285,1.0,1.0,74,-99.99,,,-99.99,,2013-03-12 13:22:00,
2013-03-12 08:32:00,25.0,18.0,-100.00,WNW,285,1.0,1.0,74,-99.99,,,-99.99,,2013-03-12 13:32:00,
2013-03-12 08:42:00,24.0,17.0,-100.00,West,280,1.0,1.0,74,-99.99,,,-99.99,,2013-03-12 13:42:00,
2013-03-12 08:52:00,24.0,17.0,-100.00,West,280,1.0,1.0,74,-99.99,,,-99.99,,2013-03-12 13:52:00,
2013-03-12 09:02:00,24.0,17.0,-100.00,West,280,1.0,1.0,74,-99.99,,,-99.99,,2013-03-12 14:02:00,
2013-03-12 09:12:00,21.0,14.0,-100.00,West,270,1.0,1.0,73,-99.99,,,-99.99,,2013-03-12 14:12:00,
2013-03-12 09:22:00,25.0,18.0,-100.00,West,270,1.0,1.0,73,-99.99,,,-99.99,,2013-03-12 14:22:00,
2013-03-12 09:33:00,25.0,18.0,-100.00,West,270,1.0,1.0,73,-99.99,,,-99.99,,2013-03-12 14:33:00,
2013-03-12 09:42:00,29.0,21.0,-100.00,West,275,1.0,1.0,73,-99.99,,,-99.99,,2013-03-12 14:42:00,
2013-03-12 09:53:00,25.0,18.0,-100.00,West,260,1.0,1.0,73,-99.99,,,-99.99,,2013-03-12 14:53:00,
2013-03-12 10:02:00,25.0,18.0,-100.00,West,260,1.0,1.0,73,-99.99,,,-99.99,,2013-03-12 15:02:00,
2013-03-12 10:12:00,30.0,24.0,-100.00,WSW,255,1.0,1.0,79,-99.99,,,-99.99,,2013-03-12 15:12:00,
2013-03-12 10:22:00,30.0,21.0,-100.00,West,265,1.0,1.0,70,-99.99,,,-99.99,,2013-03-12 15:22:00,
2013-03-12 10:32:00,30.0,21.0,-100.00,West,265,1.0,1.0,70,-99.99,,,-99.99,,2013-03-12 15:32:00,
2013-03-12 10:42:00,30.0,21.0,-100.00,West,265,1.0,1.0,70,-99.99,,,-99.99,,2013-03-12 15:42:00,
2013-03-12 11:12:00,32.0,24.0,-100.00,West,265,1.0,1.0,74,-99.99,,,-99.99,,2013-03-12 16:12:00,
2013-03-12 11:22:00,24.0,16.0,-100.00,West,275,1.0,1.0,71,-99.99,,,-99.99,,2013-03-12 16:22:00,
2013-03-12 11:33:00,24.0,16.0,-100.00,West,275,1.0,1.0,71,-99.99,,,-99.99,,2013-03-12 16:33:00,
2013-03-12 11:43:00,35.0,25.0,-100.00,West,275,1.0,1.0,66,-99.99,,,-99.99,,2013-03-12 16:43:00,
2013-03-12 11:53:00,31.0,20.0,-100.00,West,265,1.0,1.0,65,-99.99,,,-99.99,,2013-03-12 16:53:00,
2013-03-12 12:03:00,34.0,23.0,-100.00,West,275,1.0,1.0,63,-99.99,,,-99.99,,2013-03-12 17:03:00,
2013-03-12 12:13:00,34.0,23.0,-100.00,West,275,1.0,1.0,63,-99.99,,,-99.99,,2013-03-12 17:13:00,
2013-03-12 12:22:00,35.0,23.0,-100.00,West,260,1.0,1.0,62,-99.99,,,-99.99,,2013-03-12 17:22:00,
2013-03-12 12:34:00,35.0,23.0,-100.00,West,260,1.0,1.0,62,-99.99,,,-99.99,,2013-03-12 17:34:00,
2013-03-12 12:43:00,33.0,20.0,-100.00,West,280,1.0,1.0,57,-99.99,,,-99.99,,2013-03-12 17:43:00,
2013-03-12 12:53:00,35.0,19.0,-100.00,West,275,1.0,1.0,53,-99.99,,,-99.99,,2013-03-12 17:53:00,
2013-03-12 13:03:00,35.0,19.0,-100.00,West,275,1.0,1.0,53,-99.99,,,-99.99,,2013-03-12 18:03:00,
2013-03-12 13:13:00,38.0,25.0,-100.00,West,275,1.0,1.0,59,-99.99,,,-99.99,,2013-03-12 18:13:00,
2013-03-12 13:23:00,35.0,20.0,-100.00,West,280,1.0,1.0,54,-99.99,,,-99.99,,2013-03-12 18:23:00,
2013-03-12 13:33:00,35.0,20.0,-100.00,West,280,1.0,1.0,54,-99.99,,,-99.99,,2013-03-12 18:33:00,
2013-03-12 13:42:00,42.0,29.0,-100.00,WNW,290,1.0,1.0,59,-99.99,,,-99.99,,2013-03-12 18:42:00,
2013-03-12 13:53:00,39.0,25.0,-100.00,West,275,1.0,1.0,58,-99.99,,,-99.99,,2013-03-12 18:53:00,
2013-03-12 14:03:00,39.0,25.0,-100.00,West,275,1.0,1.0,58,-99.99,,,-99.99,,2013-03-12 19:03:00,
2013-03-12 14:13:00,39.0,23.0,-100.00,West,270,1.0,1.0,51,-99.99,,,-99.99,,2013-03-12 19:13:00,
2013-03-12 14:23:00,37.0,23.0,-100.00,West,260,1.0,1.0,56,-99.99,,,-99.99,,2013-03-12 19:23:00,
2013-03-12 14:33:00,37.0,23.0,-100.00,West,260,1.0,1.0,56,-99.99,,,-99.99,,2013-03-12 19:33:00,
2013-03-12 14:43:00,40.0,23.0,-100.00,West,275,1.0,1.0,51,-99.99,,,-99.99,,2013-03-12 19:43:00,
2013-03-12 14:53:00,42.0,25.0,-100.00,West,265,1.0,1.0,51,-99.99,,,-99.99,,2013-03-12 19:53:00,
2013-03-12 15:02:00,42.0,25.0,-100.00,West,265,1.0,1.0,51,-99.99,,,-99.99,,2013-03-12 20:02:00,
2013-03-12 15:12:00,38.0,22.0,-100.00,West,265,1.0,1.0,52,-99.99,,,-99.99,,2013-03-12 20:12:00,
2013-03-12 15:23:00,36.0,21.0,-100.00,West,280,1.0,1.0,54,-99.99,,,-99.99,,2013-03-12 20:23:00,
2013-03-12 15:32:00,36.0,21.0,-100.00,West,280,1.0,1.0,54,-99.99,,,-99.99,,2013-03-12 20:32:00,
2013-03-12 15:42:00,40.0,25.0,-100.00,WNW,290,1.0,1.0,55,-99.99,,,-99.99,,2013-03-12 20:42:00,
2013-03-12 15:53:00,30.0,21.0,-100.00,WNW,290,1.0,1.0,69,-99.99,,,-99.99,,2013-03-12 20:53:00,
2013-03-12 16:02:00,30.0,21.0,-100.00,WNW,290,1.0,1.0,69,-99.99,,,-99.99,,2013-03-12 21:02:00,
2013-03-12 16:13:00,36.0,30.0,-100.00,West,280,1.0,1.0,80,-99.99,,,-99.99,,2013-03-12 21:13:00,
2013-03-12 16:22:00,39.0,34.0,-100.00,WNW,285,1.0,1.0,84,-99.99,,,-99.99,,2013-03-12 21:22:00,
2013-03-12 16:32:00,39.0,34.0,-100.00,WNW,285,1.0,1.0,84,-99.99,,,-99.99,,2013-03-12 21:32:00,
2013-03-12 16:43:00,33.0,27.0,-100.00,WNW,290,1.0,1.0,80,-99.99,,,-99.99,,2013-03-12 21:43:00,
2013-03-12 16:53:00,38.0,35.0,-100.00,West,280,1.0,1.0,86,-99.99,,,-99.99,,2013-03-12 21:53:00,
2013-03-12 17:02:00,38.0,35.0,-100.00,West,280,1.0,1.0,86,-99.99,,,-99.99,,2013-03-12 22:02:00,
2013-03-12 17:12:00,38.0,31.0,-100.00,WNW,290,1.0,1.0,76,-99.99,,,-99.99,,2013-03-12 22:12:00,
2013-03-12 17:22:00,40.0,31.0,-100.00,WNW,285,1.0,1.0,69,-99.99,,,-99.99,,2013-03-12 22:22:00,
2013-03-12 17:33:00,40.0,31.0,-100.00,WNW,285,1.0,1.0,69,-99.99,,,-99.99,,2013-03-12 22:33:00,
2013-03-12 17:42:00,36.0,26.0,-100.00,WNW,285,1.0,1.0,67,-99.99,,,-99.99,,2013-03-12 22:42:00,
2013-03-12 17:53:00,39.0,30.0,-100.00,WNW,290,1.0,1.0,70,-99.99,,,-99.99,,2013-03-12 22:53:00,
2013-03-12 18:02:00,39.0,30.0,-100.00,WNW,290,1.0,1.0,70,-99.99,,,-99.99,,2013-03-12 23:02:00,
2013-03-12 18:12:00,37.0,25.0,-100.00,WNW,290,1.0,1.0,63,-99.99,,,-99.99,,2013-03-12 23:12:00,
2013-03-12 18:22:00,33.0,18.0,-100.00,West,275,1.0,1.0,55,-99.99,,,-99.99,,2013-03-12 23:22:00,
2013-03-12 18:34:00,33.0,18.0,-100.00,West,275,1.0,1.0,55,-99.99,,,-99.99,,2013-03-12 23:34:00,
2013-03-12 18:43:00,35.0,21.0,-100.00,West,270,1.0,1.0,55,-99.99,,,-99.99,,2013-03-12 23:43:00,
2013-03-12 18:52:00,31.0,17.0,-100.00,West,265,1.0,1.0,55,-99.99,,,-99.99,,2013-03-12 23:52:00,
2013-03-12 19:03:00,31.0,17.0,-100.00,West,265,1.0,1.0,55,-99.99,,,-99.99,,2013-03-13 00:03:00,
2013-03-12 19:12:00,37.0,26.0,-100.00,West,280,1.0,1.0,64,-99.99,,,-99.99,,2013-03-13 00:12:00,
2013-03-12 19:23:00,32.0,21.0,-100.00,West,280,1.0,1.0,65,-99.99,,,-99.99,,2013-03-13 00:23:00,
2013-03-12 19:33:00,32.0,21.0,-100.00,West,280,1.0,1.0,65,-99.99,,,-99.99,,2013-03-13 00:33:00,
2013-03-12 19:42:00,34.0,24.0,-100.00,West,280,1.0,1.0,67,-99.99,,,-99.99,,2013-03-13 00:42:00,
2013-03-12 19:53:00,37.0,25.0,-100.00,West,280,1.0,1.0,63,-99.99,,,-99.99,,2013-03-13 00:53:00,
2013-03-12 20:03:00,37.0,25.0,-100.00,West,280,1.0,1.0,63,-99.99,,,-99.99,,2013-03-13 01:03:00,
2013-03-12 20:12:00,32.0,21.0,-100.00,West,270,1.0,1.0,63,-99.99,,,-99.99,,2013-03-13 01:12:00,
2013-03-12 20:22:00,30.0,21.0,-100.00,West,280,1.0,1.0,67,-99.99,,,-99.99,,2013-03-13 01:22:00,
2013-03-12 20:32:00,30.0,21.0,-100.00,West,280,1.0,1.0,67,-99.99,,,-99.99,,2013-03-13 01:32:00,
2013-03-12 20:42:00,35.0,25.0,-100.00,WNW,290,1.0,1.0,66,-99.99,,,-99.99,,2013-03-13 01:42:00,
2013-03-12 20:53:00,35.0,27.0,-100.00,West,280,1.0,1.0,72,-99.99,,,-99.99,,2013-03-13 01:53:00,
2013-03-12 21:02:00,35.0,27.0,-100.00,West,280,1.0,1.0,72,-99.99,,,-99.99,,2013-03-13 02:02:00,
2013-03-12 21:12:00,35.0,24.0,-100.00,West,280,1.0,1.0,65,-99.99,,,-99.99,,2013-03-13 02:12:00,
2013-03-12 21:22:00,32.0,26.0,-100.00,NW,305,1.0,1.0,79,-99.99,,,-99.99,,2013-03-13 02:22:00,
2013-03-12 21:32:00,32.0,26.0,-100.00,NW,305,1.0,1.0,79,-99.99,,,-99.99,,2013-03-13 02:32:00,
2013-03-12 21:43:00,32.0,28.0,-100.00,WNW,300,1.0,1.0,84,-99.99,,,-99.99,,2013-03-13 02:43:00,
2013-03-12 21:52:00,30.0,25.0,-100.00,WNW,285,1.0,1.0,81,-99.99,,,-99.99,,2013-03-13 02:52:00,
2013-03-12 22:02:00,30.0,25.0,-100.00,WNW,285,1.0,1.0,81,-99.99,,,-99.99,,2013-03-13 03:02:00,
2013-03-12 22:12:00,18.0,11.0,-100.00,West,280,1.0,1.0,73,-99.99,,,-99.99,,2013-03-13 03:12:00,
2013-03-12 22:22:00,30.0,24.0,-100.00,NW,310,1.0,1.0,79,-99.99,,,-99.99,,2013-03-13 03:22:00,
2013-03-12 22:32:00,30.0,24.0,-100.00,NW,310,1.0,1.0,79,-99.99,,,-99.99,,2013-03-13 03:32:00,
2013-03-12 22:42:00,30.0,23.0,-100.00,NW,310,1.0,1.0,73,-99.99,,,-99.99,,2013-03-13 03:42:00,
2013-03-12 22:53:00,30.0,18.0,-100.00,NW,305,1.0,1.0,62,-99.99,,,-99.99,,2013-03-13 03:53:00,
2013-03-12 23:03:00,30.0,18.0,-100.00,NW,305,1.0,1.0,62,-99.99,,,-99.99,,2013-03-13 04:03:00,
2013-03-12 23:13:00,28.0,16.0,-100.00,NW,310,1.0,1.0,61,-99.99,,,-99.99,,2013-03-13 04:13:00,
2013-03-12 23:22:00,25.0,13.0,-100.00,NW,305,1.0,1.0,61,-99.99,,,-99.99,,2013-03-13 04:22:00,
2013-03-12 23:30:00,22.0,17.0,-100.00,NW,305,1.0,1.0,79,-99.99,,,-99.99,,2013-03-13 04:30:00,
2013-03-12 23:32:00,18.0,9.0,-100.00,NW,310,1.0,1.0,66,-99.99,,,-99.99,,2013-03-13 04:32:00,
2013-03-12 23:43:00,18.0,9.0,-100.00,NW,310,1.0,1.0,66,-99.99,,,-99.99,,2013-03-13 04:43:00,
2013-03-12 23:53:00,23.0,14.0,-100.00,WNW,300,1.0,1.0,66,-99.99,,,-99.99,,2013-03-13 04:53:00,